createdAt,value
2018-02-16T04:30:19.505Z,1.20
2018-02-16T04:32:47.258Z,1.10
2018-02-16T04:35:15.303Z,1.10
2018-02-16T04:37:43.808Z,1.20
2018-02-16T04:40:11.469Z,1.20
2018-02-16T04:42:39.147Z,1.30
2018-02-16T04:45:06.892Z,1.20
2018-02-16T04:47:34.572Z,1.10
2018-02-16T04:50:03.051Z,1.00
2018-02-16T04:52:30.795Z,1.00
2018-02-16T04:54:58.558Z,0.90
2018-02-16T04:57:26.423Z,0.90
2018-02-16T04:59:54.187Z,0.80
2018-02-16T05:02:21.949Z,0.70
2018-02-16T05:04:49.628Z,0.80
2018-02-16T05:07:17.268Z,0.90
2018-02-16T05:09:45.033Z,0.90
2018-02-16T05:12:12.898Z,0.90
2018-02-16T05:14:40.576Z,0.80
2018-02-16T05:17:08.340Z,0.80
2018-02-16T05:19:36.000Z,0.80
2018-02-16T05:22:03.643Z,0.80
2018-02-16T05:24:31.320Z,0.80
2018-02-16T05:26:58.979Z,0.70
2018-02-16T05:29:26.607Z,0.70
2018-02-16T05:31:54.281Z,0.70
2018-02-16T05:34:22.047Z,0.70
2018-02-16T05:36:49.810Z,0.70
2018-02-16T05:39:17.675Z,0.70
2018-02-16T05:41:45.438Z,0.60
2018-02-16T05:44:13.201Z,0.60
2018-02-16T05:46:40.984Z,0.50
2018-02-16T05:49:10.212Z,0.50
2018-02-16T05:51:38.742Z,0.50
2018-02-16T05:54:06.508Z,0.50
2018-02-16T05:56:34.268Z,0.50
2018-02-16T05:59:01.947Z,0.60
2018-02-16T06:01:29.794Z,0.60
2018-02-16T06:03:57.455Z,0.80
2018-02-16T06:06:25.218Z,0.80
2018-02-16T06:08:53.085Z,0.70
2018-02-16T06:11:20.764Z,0.70
2018-02-16T06:13:48.508Z,0.70
2018-02-16T06:16:16.188Z,0.70
2018-02-16T06:18:43.930Z,0.70
2018-02-16T06:21:11.607Z,0.70
2018-02-16T06:23:39.254Z,0.70
2018-02-16T06:26:07.014Z,0.70
2018-02-16T06:28:34.900Z,0.70
2018-02-16T06:31:02.600Z,0.80
2018-02-16T06:33:31.036Z,0.90
2018-02-16T06:35:58.781Z,0.80
2018-02-16T06:38:26.546Z,0.90
2018-02-16T06:40:54.323Z,0.90
2018-02-16T06:43:22.072Z,0.90
2018-02-16T06:45:49.834Z,0.90
2018-02-16T06:48:17.596Z,0.90
2018-02-16T06:50:45.258Z,0.90
2018-02-16T06:53:13.022Z,1.00
2018-02-16T06:55:40.785Z,1.10
2018-02-16T06:58:08.459Z,1.10
2018-02-16T07:00:36.209Z,1.10
2018-02-16T07:03:03.970Z,1.10
2018-02-16T07:05:31.649Z,1.20
2018-02-16T07:07:59.307Z,1.20
2018-02-16T07:10:27.052Z,1.20
2018-02-16T07:12:54.736Z,1.10
2018-02-16T07:15:24.012Z,0.90
2018-02-16T07:17:51.876Z,0.90
2018-02-16T07:20:23.326Z,0.90
2018-02-16T07:22:51.089Z,0.90
2018-02-16T07:25:18.852Z,0.80
2018-02-16T07:27:46.616Z,0.80
2018-02-16T07:30:14.378Z,0.90
2018-02-16T07:32:42.165Z,1.00
2018-02-16T07:35:09.907Z,1.00
2018-02-16T07:37:37.768Z,0.90
2018-02-16T07:40:05.639Z,1.00
2018-02-16T07:42:33.294Z,1.00
2018-02-16T07:45:01.057Z,1.10
2018-02-16T07:47:28.735Z,1.20
2018-02-16T07:49:56.481Z,1.30
2018-02-16T07:52:24.163Z,1.30
2018-02-16T07:54:51.924Z,1.40
2018-02-16T07:57:19.584Z,1.40
2018-02-16T07:59:47.260Z,1.40
2018-02-16T08:02:15.658Z,1.60
2018-02-16T08:04:44.185Z,1.70
2018-02-16T08:07:11.859Z,1.60
2018-02-16T08:09:39.608Z,1.60
2018-02-16T08:12:07.288Z,1.60
2018-02-16T08:14:35.136Z,1.60
2018-02-16T08:17:02.794Z,1.60
2018-02-16T08:19:30.423Z,1.60
2018-02-16T08:21:58.136Z,1.60
2018-02-16T08:24:25.879Z,1.70
2018-02-16T08:26:53.560Z,1.80
2018-02-16T08:29:22.732Z,1.90
2018-02-16T08:31:50.498Z,1.90
2018-02-16T08:34:18.183Z,1.90
2018-02-16T08:36:46.024Z,2.00
2018-02-16T08:39:13.705Z,2.00
2018-02-16T08:41:41.448Z,2.10
2018-02-16T08:44:09.130Z,2.10
2018-02-16T08:46:36.871Z,2.10
2018-02-16T08:49:04.553Z,2.20
2018-02-16T08:51:32.295Z,2.20
2018-02-16T08:53:59.972Z,2.20
2018-02-16T08:56:27.718Z,2.30
2018-02-16T08:58:55.481Z,2.40
2018-02-16T09:01:23.160Z,2.50
2018-02-16T09:03:50.924Z,2.50
2018-02-16T09:06:18.667Z,2.60
2018-02-16T09:08:46.431Z,2.70
2018-02-16T09:11:14.193Z,2.70
2018-02-16T09:13:41.874Z,2.80
2018-02-16T09:16:09.636Z,2.80
2018-02-16T09:18:37.482Z,2.90
2018-02-16T09:21:05.245Z,2.90
2018-02-16T09:23:33.010Z,2.90
2018-02-16T09:26:00.876Z,3.00
2018-02-16T09:28:28.639Z,3.00
2018-02-16T09:30:56.398Z,3.00
2018-02-16T09:33:24.269Z,2.90
2018-02-16T09:35:52.552Z,2.90
2018-02-16T09:38:20.302Z,3.00
2018-02-16T09:40:48.084Z,2.90
2018-02-16T09:43:16.649Z,2.90
2018-02-16T09:45:44.409Z,2.80
2018-02-16T09:48:12.173Z,2.90
2018-02-16T09:50:39.936Z,3.00
2018-02-16T09:53:07.698Z,3.00
2018-02-16T09:55:35.461Z,3.10
2018-02-16T09:58:03.145Z,3.20
2018-02-16T10:00:30.802Z,3.20
2018-02-16T10:02:58.545Z,3.20
2018-02-16T10:05:26.308Z,3.30
2018-02-16T10:07:53.988Z,3.30
2018-02-16T10:10:21.732Z,3.30
2018-02-16T10:12:49.476Z,3.30
2018-02-16T10:15:17.154Z,3.40
2018-02-16T10:17:45.021Z,3.40
2018-02-16T10:20:12.644Z,3.40
2018-02-16T10:22:40.443Z,3.50
2018-02-16T10:25:08.207Z,3.50
2018-02-16T10:27:35.884Z,3.60
2018-02-16T10:30:03.754Z,3.60
2018-02-16T10:32:31.495Z,3.60
2018-02-16T10:34:59.178Z,3.70
2018-02-16T10:37:27.636Z,3.80
2018-02-16T10:39:55.296Z,3.70
2018-02-16T10:42:22.976Z,3.80
2018-02-16T10:44:50.719Z,3.80
2018-02-16T10:47:18.483Z,3.90
2018-02-16T10:49:46.108Z,3.90
2018-02-16T10:52:13.906Z,3.90
2018-02-16T10:54:41.584Z,4.00
2018-02-16T10:57:09.227Z,3.90
2018-02-16T10:59:36.875Z,4.00
2018-02-16T11:02:10.165Z,4.10
2018-02-16T11:04:43.574Z,4.10
2018-02-16T11:07:16.884Z,4.10
2018-02-16T11:09:44.631Z,4.20
2018-02-16T11:12:12.309Z,4.30
2018-02-16T11:14:40.053Z,4.40
2018-02-16T11:17:07.816Z,4.50
2018-02-16T11:19:35.579Z,4.60
2018-02-16T11:22:03.446Z,4.60
2018-02-16T11:24:31.128Z,4.60
2018-02-16T11:26:58.867Z,4.70
2018-02-16T11:29:26.630Z,4.60
2018-02-16T11:31:54.393Z,4.70
2018-02-16T11:34:22.072Z,4.80
2018-02-16T11:36:49.755Z,4.90
2018-02-16T11:39:18.212Z,4.90
2018-02-16T11:41:45.872Z,4.90
2018-02-16T11:44:13.720Z,4.90
2018-02-16T11:46:41.482Z,4.90
2018-02-16T11:49:09.245Z,5.00
2018-02-16T11:51:37.111Z,5.00
2018-02-16T11:54:04.873Z,5.00
2018-02-16T11:56:32.564Z,5.00
2018-02-16T11:59:00.318Z,5.10
2018-02-16T12:01:28.059Z,5.10
2018-02-16T12:03:55.823Z,5.10
2018-02-16T12:06:23.605Z,5.20
2018-02-16T12:08:52.884Z,5.20
2018-02-16T12:11:20.567Z,5.10
2018-02-16T12:13:48.198Z,5.20
2018-02-16T12:16:15.972Z,5.30
2018-02-16T12:18:43.628Z,5.30
2018-02-16T12:21:11.391Z,5.30
2018-02-16T12:23:39.068Z,5.30
2018-02-16T12:26:06.712Z,5.40
2018-02-16T12:28:34.394Z,5.40
2018-02-16T12:31:02.158Z,5.50
2018-02-16T12:33:29.900Z,5.50
2018-02-16T12:35:57.664Z,5.50
2018-02-16T12:38:25.427Z,5.50
2018-02-16T12:40:53.190Z,5.60
2018-02-16T12:43:21.053Z,5.60
2018-02-16T12:45:48.816Z,5.60
2018-02-16T12:48:16.581Z,5.70
2018-02-16T12:50:44.239Z,5.80
2018-02-16T12:53:12.002Z,5.80
2018-02-16T12:55:39.765Z,6.00
2018-02-16T12:58:07.449Z,6.10
2018-02-16T13:00:35.188Z,6.30
2018-02-16T13:03:02.951Z,6.30
2018-02-16T13:05:30.714Z,6.30
2018-02-16T13:07:58.393Z,6.30
2018-02-16T13:10:26.138Z,6.20
2018-02-16T13:12:53.900Z,6.20
2018-02-16T13:15:21.662Z,6.30
2018-02-16T13:17:49.283Z,6.20
2018-02-16T13:20:16.900Z,6.30
2018-02-16T13:22:44.747Z,6.20
2018-02-16T13:25:12.510Z,6.10
2018-02-16T13:27:40.189Z,6.20
2018-02-16T13:30:07.848Z,6.30
2018-02-16T13:32:35.468Z,6.40
2018-02-16T13:35:03.255Z,6.60
2018-02-16T13:37:30.934Z,6.50
2018-02-16T13:39:58.679Z,6.40
2018-02-16T13:42:26.543Z,6.20
2018-02-16T13:44:54.306Z,6.10
2018-02-16T13:47:21.934Z,6.20
2018-02-16T13:49:49.627Z,6.10
2018-02-16T13:52:17.391Z,5.90
2018-02-16T13:54:45.155Z,5.70
2018-02-16T13:57:12.813Z,5.50
2018-02-16T13:59:40.496Z,5.30
2018-02-16T14:02:09.056Z,5.20
2018-02-16T14:04:36.818Z,5.20
2018-02-16T14:07:04.480Z,5.30
2018-02-16T14:09:32.243Z,5.30
2018-02-16T14:12:00.031Z,5.40
2018-02-16T14:14:27.688Z,5.40
2018-02-16T14:16:55.432Z,5.30
2018-02-16T14:19:23.212Z,5.10
2018-02-16T14:21:50.956Z,4.90
2018-02-16T14:24:18.635Z,4.80
2018-02-16T14:26:46.396Z,4.70
2018-02-16T14:29:14.243Z,4.70
2018-02-16T14:31:41.924Z,4.60
2018-02-16T14:34:09.768Z,4.70
2018-02-16T14:36:37.448Z,4.70
2018-02-16T14:39:05.195Z,4.70
2018-02-16T14:41:32.954Z,4.70
2018-02-16T14:44:00.718Z,4.60
2018-02-16T14:46:28.500Z,4.60
2018-02-16T14:48:56.119Z,4.50
2018-02-16T14:51:23.837Z,4.40
2018-02-16T14:53:51.626Z,4.30
2018-02-16T14:56:19.430Z,4.20
2018-02-16T14:58:47.130Z,4.10
2018-02-16T15:01:15.674Z,4.00
2018-02-16T15:03:43.434Z,4.00
2018-02-16T15:06:11.116Z,4.00
2018-02-16T15:08:38.858Z,3.90
2018-02-16T15:11:06.621Z,3.90
2018-02-16T15:13:34.392Z,3.90
2018-02-16T15:16:02.148Z,4.00
2018-02-16T15:18:29.833Z,4.00
2018-02-16T15:20:57.590Z,4.00
2018-02-16T15:23:25.333Z,4.00
2018-02-16T15:25:52.965Z,4.00
2018-02-16T15:28:20.654Z,4.10
2018-02-16T15:30:48.445Z,4.20
2018-02-16T15:33:16.282Z,4.20
2018-02-16T15:35:44.045Z,4.20
2018-02-16T15:38:11.713Z,4.20
2018-02-16T15:40:39.469Z,4.10
2018-02-16T15:43:08.788Z,3.90
2018-02-16T15:45:36.636Z,3.90
2018-02-16T15:48:04.316Z,3.80
2018-02-16T15:50:31.989Z,3.70
2018-02-16T15:52:59.823Z,3.70
2018-02-16T15:55:27.508Z,3.70
2018-02-16T15:57:55.347Z,3.60
2018-02-16T16:00:23.110Z,3.60
2018-02-16T16:02:50.874Z,3.70
2018-02-16T16:05:18.736Z,3.60
2018-02-16T16:07:46.501Z,3.50
2018-02-16T16:10:14.261Z,3.50
2018-02-16T16:12:42.025Z,3.50
2018-02-16T16:15:09.788Z,3.50
2018-02-16T16:17:37.415Z,3.40
2018-02-16T16:20:05.210Z,3.30
2018-02-16T16:22:32.973Z,3.30
2018-02-16T16:25:00.737Z,3.30
2018-02-16T16:27:28.499Z,3.30
2018-02-16T16:29:56.183Z,3.20
2018-02-16T16:32:24.025Z,3.20
2018-02-16T16:34:51.790Z,3.20
2018-02-16T16:37:19.551Z,3.20
2018-02-16T16:39:47.314Z,3.10
2018-02-16T16:42:14.974Z,3.00
2018-02-16T16:44:42.634Z,3.00
2018-02-16T16:47:10.301Z,3.00
2018-02-16T16:49:37.977Z,3.00
2018-02-16T16:52:05.635Z,3.00
2018-02-16T16:54:33.287Z,2.90
2018-02-16T16:57:01.039Z,2.80
2018-02-16T16:59:28.803Z,2.70
2018-02-16T17:01:56.669Z,2.70
2018-02-16T17:04:24.536Z,2.70
2018-02-16T17:06:52.296Z,2.60
2018-02-16T17:09:19.976Z,2.60
2018-02-16T17:11:47.822Z,2.50
2018-02-16T17:14:15.585Z,2.40
2018-02-16T17:16:43.245Z,2.30
2018-02-16T17:19:10.923Z,2.20
2018-02-16T17:21:38.668Z,2.10
2018-02-16T17:24:06.431Z,2.00
2018-02-16T17:26:34.197Z,1.90
2018-02-16T17:29:01.977Z,1.90
2018-02-16T17:31:29.721Z,1.90
2018-02-16T17:33:57.483Z,1.80
2018-02-16T17:36:25.245Z,1.70
2018-02-16T17:38:52.924Z,1.60
2018-02-16T17:41:22.207Z,1.50
2018-02-16T17:43:49.861Z,1.50
2018-02-16T17:46:17.543Z,1.50
2018-02-16T17:48:45.312Z,1.40
2018-02-16T17:51:13.052Z,1.30
2018-02-16T17:53:40.732Z,1.30
2018-02-16T17:56:08.475Z,1.20
2018-02-16T17:58:36.156Z,1.10
2018-02-16T18:01:03.898Z,0.90
2018-02-16T18:03:31.662Z,0.80
2018-02-16T18:05:59.449Z,0.70
2018-02-16T18:08:27.187Z,0.60
2018-02-16T18:10:54.950Z,0.60
2018-02-16T18:13:22.732Z,0.50
2018-02-16T18:15:50.479Z,0.50
2018-02-16T18:18:18.156Z,0.50
2018-02-16T18:20:46.006Z,0.40
2018-02-16T18:23:13.667Z,0.40
2018-02-16T18:25:41.344Z,0.40
2018-02-16T18:28:09.192Z,0.30
2018-02-16T18:30:36.849Z,0.30
2018-02-16T18:33:04.527Z,0.20
2018-02-16T18:35:33.718Z,0.00
2018-02-16T18:38:01.470Z,0.00
2018-02-16T18:40:29.116Z,-0.10
2018-02-16T18:42:56.812Z,-0.20
2018-02-16T18:45:24.452Z,-0.30
2018-02-16T18:47:52.084Z,-0.30
2018-02-16T18:50:19.780Z,-0.40
2018-02-16T18:52:47.412Z,-0.40
2018-02-16T18:55:15.042Z,0.00
2018-02-16T18:57:43.548Z,-0.30
2018-02-16T19:00:11.184Z,-0.30
2018-02-16T19:02:39.610Z,-0.30
2018-02-16T19:05:07.296Z,-0.40
2018-02-16T19:07:34.932Z,-0.50
2018-02-16T19:10:02.575Z,-0.40
2018-02-16T19:12:30.248Z,-0.50
2018-02-16T19:14:57.876Z,-0.50
2018-02-16T19:17:25.675Z,-0.40
2018-02-16T19:19:53.459Z,-0.50
2018-02-16T19:22:21.245Z,-0.60
2018-02-16T19:24:49.782Z,-0.70
2018-02-16T19:27:17.549Z,-0.70
2018-02-16T19:29:45.206Z,-0.70
2018-02-16T19:32:12.973Z,-0.80
2018-02-16T19:34:40.735Z,-0.90
2018-02-16T19:37:08.369Z,-0.90
2018-02-16T19:39:36.077Z,-1.00
2018-02-16T19:42:03.919Z,-1.00
2018-02-16T19:44:31.555Z,-1.00
2018-02-16T19:46:59.261Z,-1.10
2018-02-16T19:49:28.555Z,-0.90
2018-02-16T19:51:57.423Z,-0.90
2018-02-16T19:54:26.009Z,-0.80
2018-02-16T19:56:53.792Z,-0.80
2018-02-16T19:59:21.536Z,-0.90
2018-02-16T20:01:49.300Z,-1.10
2018-02-16T20:04:17.167Z,-1.20
2018-02-16T20:06:46.874Z,-1.20
2018-02-16T20:09:14.636Z,-1.20
2018-02-16T20:11:42.358Z,-1.20
2018-02-16T20:14:10.747Z,-1.30
2018-02-16T20:16:38.386Z,-1.30
2018-02-16T20:19:06.853Z,-1.30
2018-02-16T20:21:35.269Z,-1.40
2018-02-16T20:24:02.908Z,-1.40
2018-02-16T20:26:31.360Z,-1.40
2018-02-16T20:28:58.995Z,-1.40
2018-02-16T20:31:26.628Z,-1.40
2018-02-16T20:33:54.334Z,-1.50
2018-02-16T20:36:21.978Z,-1.50
2018-02-16T20:38:49.793Z,-1.50
2018-02-16T20:41:18.426Z,-1.60
2018-02-16T20:43:46.101Z,-1.70
2018-02-16T20:46:14.666Z,-1.60
2018-02-16T20:48:42.630Z,-1.70
2018-02-16T20:51:10.393Z,-1.60
2018-02-16T20:53:38.023Z,-1.70
2018-02-16T20:56:05.835Z,-1.70
2018-02-16T20:58:33.464Z,-1.60
2018-02-16T21:01:01.240Z,-1.60
2018-02-16T21:03:29.105Z,-1.70
2018-02-16T21:05:56.767Z,-1.70
2018-02-16T21:08:24.528Z,-1.70
2018-02-16T21:10:52.213Z,-1.80
2018-02-16T21:13:19.952Z,-1.70
2018-02-16T21:15:47.817Z,-1.80
2018-02-16T21:18:15.582Z,-1.80
2018-02-16T21:20:43.343Z,-1.80
2018-02-16T21:23:11.128Z,-1.90
2018-02-16T21:25:38.871Z,-1.90
2018-02-16T21:28:06.557Z,-1.80
2018-02-16T21:30:34.312Z,-1.90
2018-02-16T21:33:02.077Z,-1.90
2018-02-16T21:35:29.819Z,-2.00
2018-02-16T21:37:57.625Z,-1.90
2018-02-16T21:40:25.259Z,-1.90
2018-02-16T21:42:53.024Z,-1.90
2018-02-16T21:45:20.684Z,-1.90
2018-02-16T21:47:48.427Z,-1.80
2018-02-16T21:50:16.311Z,-1.80
2018-02-16T21:52:43.971Z,-1.80
2018-02-16T21:55:11.717Z,-1.70
2018-02-16T21:57:39.583Z,-1.80
2018-02-16T22:00:08.186Z,-1.80
2018-02-16T22:02:37.379Z,-1.70
2018-02-16T22:05:05.144Z,-1.70
2018-02-16T22:07:32.889Z,-1.50
2018-02-16T22:10:00.652Z,-1.50
2018-02-16T22:12:28.433Z,-1.60
2018-02-16T22:14:56.092Z,-1.60
2018-02-16T22:17:23.856Z,-1.60
2018-02-16T22:19:51.602Z,-1.60
2018-02-16T22:22:19.236Z,-1.60
2018-02-16T22:24:46.940Z,-1.50
2018-02-16T22:27:16.132Z,-1.40
2018-02-16T22:29:43.796Z,-1.40
2018-02-16T22:32:11.455Z,-1.30
2018-02-16T22:34:39.200Z,-1.20
2018-02-16T22:37:06.963Z,-1.10
2018-02-16T22:39:34.649Z,-1.00
2018-02-16T22:42:03.103Z,-1.10
2018-02-16T22:44:30.731Z,-1.10
2018-02-16T22:46:58.526Z,-1.20
2018-02-16T22:49:26.290Z,-1.30
2018-02-16T22:51:54.052Z,-1.30
2018-02-16T22:54:21.816Z,-1.20
2018-02-16T22:56:49.495Z,-1.20
2018-02-16T22:59:17.129Z,-1.10
2018-02-16T23:01:44.816Z,-1.10
2018-02-16T23:04:12.560Z,-1.00
2018-02-16T23:06:40.239Z,-1.00
2018-02-16T23:09:08.803Z,-0.80
2018-02-16T23:11:36.567Z,-0.80
2018-02-16T23:14:04.244Z,-0.80
2018-02-16T23:16:32.012Z,-0.80
2018-02-16T23:18:59.751Z,-0.70
2018-02-16T23:21:27.380Z,-0.80
2018-02-16T23:23:55.092Z,-0.70
2018-02-16T23:26:23.576Z,-0.60
2018-02-16T23:28:51.315Z,-0.60
